createdAt,value
2022-11-28T00:01:35.520Z,13.27
2022-11-28T00:04:04.485Z,13.26
2022-11-28T00:06:32.356Z,13.24
2022-11-28T00:09:01.267Z,13.16
2022-11-28T00:11:29.164Z,13.13
2022-11-28T00:13:57.153Z,13.06
2022-11-28T00:16:25.388Z,13.09
2022-11-28T00:18:56.132Z,13.10
2022-11-28T00:21:25.983Z,13.11
2022-11-28T00:23:54.419Z,13.12
2022-11-28T00:26:25.539Z,13.06
2022-11-28T00:28:53.909Z,12.94
2022-11-28T00:31:23.892Z,12.95
2022-11-28T00:33:52.039Z,12.92
2022-11-28T00:36:22.453Z,12.73
2022-11-28T00:38:51.211Z,12.52
2022-11-28T00:41:22.250Z,12.47
2022-11-28T00:43:51.967Z,12.56
2022-11-28T00:46:21.520Z,12.49
2022-11-28T00:48:50.376Z,12.45
2022-11-28T00:51:20.144Z,12.44
2022-11-28T00:53:51.923Z,12.34
2022-11-28T00:56:21.946Z,12.43
2022-11-28T00:58:49.928Z,12.40
2022-11-28T01:01:20.123Z,12.32
2022-11-28T01:03:49.081Z,12.51
2022-11-28T01:06:23.196Z,12.57
2022-11-28T01:08:52.899Z,12.32
2022-11-28T01:11:21.252Z,12.33
2022-11-28T01:13:49.552Z,12.39
2022-11-28T01:16:17.994Z,12.25
2022-11-28T01:18:45.831Z,12.26
2022-11-28T01:21:13.737Z,12.35
2022-11-28T01:23:41.408Z,12.11
2022-11-28T01:26:12.496Z,12.08
2022-11-28T01:28:40.255Z,12.00
2022-11-28T01:31:10.047Z,11.94
2022-11-28T01:33:39.017Z,11.85
2022-11-28T01:36:07.380Z,11.91
2022-11-28T01:38:35.515Z,11.97
2022-11-28T01:41:03.331Z,12.16
2022-11-28T01:43:32.800Z,12.24
2022-11-28T01:46:00.572Z,12.21
2022-11-28T01:48:33.335Z,12.23
2022-11-28T01:51:04.044Z,12.42
2022-11-28T01:53:34.155Z,12.16
2022-11-28T01:56:07.243Z,12.27
2022-11-28T01:58:40.876Z,12.23
2022-11-28T02:01:09.431Z,12.15
2022-11-28T02:03:44.057Z,12.07
2022-11-28T02:06:13.957Z,12.09
2022-11-28T02:08:41.945Z,12.21
2022-11-28T02:11:38.163Z,12.02
2022-11-28T02:14:17.100Z,11.81
2022-11-28T02:16:57.956Z,12.00
2022-11-28T02:19:56.023Z,12.08
2022-11-28T02:22:26.492Z,12.11
2022-11-28T02:25:29.600Z,12.16
2022-11-28T02:28:39.413Z,12.12
2022-11-28T02:31:19.879Z,12.14
2022-11-28T02:33:53.951Z,12.01
2022-11-28T02:36:29.829Z,11.85
2022-11-28T02:39:10.576Z,11.76
2022-11-28T02:41:45.384Z,11.72
2022-11-28T02:44:17.726Z,11.58
2022-11-28T02:46:54.248Z,11.64
2022-11-28T02:49:28.553Z,11.63
2022-11-28T02:51:59.371Z,11.78
2022-11-28T02:54:28.360Z,11.81
2022-11-28T02:56:56.259Z,11.69
2022-11-28T02:59:33.156Z,11.61
2022-11-28T03:02:02.630Z,11.54
2022-11-28T03:04:41.879Z,11.51
2022-11-28T03:07:23.185Z,11.43
2022-11-28T03:10:01.992Z,11.37
2022-11-28T03:12:42.811Z,11.37
2022-11-28T03:15:13.196Z,11.53
2022-11-28T03:17:49.391Z,11.53
2022-11-28T03:20:23.827Z,11.43
2022-11-28T03:23:02.295Z,11.29
2022-11-28T03:25:35.387Z,11.20
2022-11-28T03:28:10.191Z,11.12
2022-11-28T03:30:43.136Z,11.03
2022-11-28T03:33:11.524Z,11.14
2022-11-28T03:35:47.884Z,11.16
2022-11-28T03:38:22.488Z,11.26
2022-11-28T03:40:54.911Z,11.31
2022-11-28T03:43:27.875Z,11.26
2022-11-28T03:45:59.408Z,10.99
2022-11-28T03:48:32.589Z,11.30
2022-11-28T03:51:07.971Z,11.36
2022-11-28T03:53:42.331Z,11.30
2022-11-28T03:56:15.997Z,11.37
2022-11-28T03:58:50.826Z,11.07
2022-11-28T04:01:26.886Z,11.15
2022-11-28T04:03:59.505Z,10.93
2022-11-28T04:06:36.023Z,10.96
2022-11-28T04:09:12.983Z,11.10
2022-11-28T04:11:46.196Z,11.26
2022-11-28T04:14:21.503Z,11.48
2022-11-28T04:16:55.792Z,11.49
2022-11-28T04:19:29.395Z,11.41
2022-11-28T04:22:04.408Z,11.56
2022-11-28T04:24:35.859Z,11.55
2022-11-28T04:27:07.455Z,11.67
2022-11-28T04:29:40.337Z,11.67
2022-11-28T04:32:11.581Z,11.61
2022-11-28T04:34:41.750Z,11.56
2022-11-28T04:37:14.405Z,11.60
2022-11-28T04:39:45.796Z,11.55
2022-11-28T04:42:18.102Z,11.27
2022-11-28T04:44:50.199Z,11.33
2022-11-28T04:47:18.895Z,11.53
2022-11-28T04:49:46.741Z,11.59
2022-11-28T04:52:21.301Z,11.55
2022-11-28T04:54:58.198Z,11.53
2022-11-28T04:57:31.844Z,11.38
2022-11-28T05:00:02.572Z,11.22
2022-11-28T05:02:31.372Z,11.16
2022-11-28T05:04:59.707Z,11.11
2022-11-28T05:07:28.913Z,10.84
2022-11-28T05:09:57.713Z,10.82
2022-11-28T05:12:25.617Z,10.79
2022-11-28T05:14:53.357Z,10.87
2022-11-28T05:17:21.124Z,10.90
2022-11-28T05:19:48.943Z,10.91
2022-11-28T05:22:16.784Z,10.92
2022-11-28T05:24:46.183Z,10.88
2022-11-28T05:27:14.021Z,10.77
2022-11-28T05:29:46.872Z,10.75
2022-11-28T05:32:17.408Z,10.73
2022-11-28T05:34:45.097Z,10.77
2022-11-28T05:37:12.873Z,10.98
2022-11-28T05:39:41.153Z,11.01
2022-11-28T05:42:10.446Z,11.11
2022-11-28T05:44:38.435Z,10.97
2022-11-28T05:47:06.383Z,10.79
2022-11-28T05:49:34.136Z,10.77
2022-11-28T05:52:01.850Z,10.90
2022-11-28T05:54:30.606Z,10.92
2022-11-28T05:56:58.375Z,10.91
2022-11-28T05:59:27.870Z,11.02
2022-11-28T06:01:55.703Z,11.29
2022-11-28T06:04:23.545Z,11.33
2022-11-28T06:06:51.939Z,11.37
2022-11-28T06:09:24.525Z,11.55
2022-11-28T06:11:53.422Z,11.49
2022-11-28T06:14:21.208Z,11.46
2022-11-28T06:16:50.371Z,11.48
2022-11-28T06:19:18.152Z,11.52
2022-11-28T06:21:45.988Z,11.45
2022-11-28T06:24:13.696Z,11.52
2022-11-28T06:26:41.470Z,11.51
2022-11-28T06:29:09.222Z,11.13
2022-11-28T06:31:37.300Z,10.92
2022-11-28T06:34:06.452Z,11.26
2022-11-28T06:36:35.098Z,11.65
2022-11-28T06:39:02.836Z,11.83
2022-11-28T06:41:30.601Z,11.79
2022-11-28T06:43:58.510Z,11.88
2022-11-28T06:46:26.385Z,11.82
2022-11-28T06:48:54.193Z,11.75
2022-11-28T06:51:23.325Z,11.65
2022-11-28T06:53:51.188Z,11.65
2022-11-28T06:56:21.079Z,11.56
2022-11-28T06:58:54.280Z,11.67
2022-11-28T07:01:23.718Z,11.63
2022-11-28T07:03:54.361Z,11.65
2022-11-28T07:06:25.267Z,11.74
2022-11-28T07:08:53.648Z,11.57
2022-11-28T07:11:23.646Z,11.75
2022-11-28T07:13:52.265Z,11.75
2022-11-28T07:16:21.769Z,11.80
2022-11-28T07:18:49.858Z,11.83
2022-11-28T07:21:18.010Z,11.49
2022-11-28T07:23:47.735Z,11.71
2022-11-28T07:26:17.410Z,11.75
2022-11-28T07:28:46.472Z,11.69
2022-11-28T07:31:17.154Z,11.36
2022-11-28T07:33:46.902Z,11.54
2022-11-28T07:36:16.074Z,11.59
2022-11-28T07:38:44.107Z,11.67
2022-11-28T07:41:14.776Z,11.54
2022-11-28T07:43:43.899Z,11.61
2022-11-28T07:46:14.213Z,11.51
2022-11-28T07:48:42.414Z,11.36
2022-11-28T07:51:12.580Z,11.45
2022-11-28T07:53:41.569Z,11.47
2022-11-28T07:56:13.919Z,11.51
2022-11-28T07:58:44.801Z,11.48
2022-11-28T08:01:14.415Z,11.49
2022-11-28T08:03:42.355Z,11.48
2022-11-28T08:06:10.381Z,11.48
2022-11-28T08:08:38.353Z,11.17
2022-11-28T08:11:08.279Z,11.43
2022-11-28T08:13:37.320Z,11.42
2022-11-28T08:16:08.276Z,11.35
2022-11-28T08:18:36.451Z,11.37
2022-11-28T08:21:05.872Z,11.23
2022-11-28T08:23:34.868Z,11.54
2022-11-28T08:26:02.815Z,11.65
2022-11-28T08:28:31.321Z,11.65
2022-11-28T08:30:59.579Z,11.55
2022-11-28T08:33:28.953Z,11.65
2022-11-28T08:35:56.727Z,11.75
2022-11-28T08:38:24.498Z,11.74
2022-11-28T08:40:52.841Z,12.01
2022-11-28T08:43:20.649Z,12.03
2022-11-28T08:45:49.410Z,12.12
2022-11-28T08:48:17.261Z,12.28
2022-11-28T08:50:49.108Z,12.24
2022-11-28T08:53:18.411Z,11.99
2022-11-28T08:55:46.694Z,12.06
2022-11-28T08:58:15.386Z,12.28
2022-11-28T09:00:43.412Z,12.08
2022-11-28T09:03:15.363Z,11.89
2022-11-28T09:05:45.282Z,12.14
2022-11-28T09:08:14.473Z,11.85
2022-11-28T09:10:43.852Z,12.10
2022-11-28T09:13:12.972Z,12.29
2022-11-28T09:15:41.846Z,12.29
2022-11-28T09:18:10.266Z,12.22
2022-11-28T09:20:38.593Z,12.33
2022-11-28T09:23:06.442Z,11.74
2022-11-28T09:25:37.512Z,11.80
2022-11-28T09:28:05.517Z,12.18
2022-11-28T09:30:34.139Z,12.27
2022-11-28T09:33:01.903Z,12.40
2022-11-28T09:35:29.638Z,12.30
2022-11-28T09:37:59.200Z,12.47
2022-11-28T09:40:32.665Z,12.77
2022-11-28T09:43:02.259Z,12.66
2022-11-28T09:45:31.540Z,12.69
2022-11-28T09:48:08.070Z,12.21
2022-11-28T09:50:41.027Z,12.47
2022-11-28T09:53:21.260Z,12.60
2022-11-28T09:55:51.564Z,12.76
2022-11-28T09:58:28.400Z,12.93
2022-11-28T10:01:06.805Z,12.90
2022-11-28T10:03:43.267Z,12.22
2022-11-28T10:06:19.754Z,12.85
2022-11-28T10:09:03.884Z,12.54
2022-11-28T10:11:45.732Z,12.17
2022-11-28T10:14:41.993Z,12.70
2022-11-28T10:17:22.986Z,12.51
2022-11-28T10:19:56.058Z,12.48
2022-11-28T10:22:31.108Z,12.09
2022-11-28T10:25:05.180Z,12.22
2022-11-28T10:27:36.236Z,11.87
2022-11-28T10:30:09.449Z,11.56
2022-11-28T10:32:41.756Z,11.54
2022-11-28T10:35:28.071Z,11.54
2022-11-28T10:37:56.388Z,11.35
2022-11-28T10:40:31.871Z,11.76
2022-11-28T10:43:03.420Z,11.92
2022-11-28T10:45:42.978Z,11.93
2022-11-28T10:51:23.607Z,12.37
2022-11-28T10:54:01.468Z,12.00
2022-11-28T10:56:40.096Z,11.81
2022-11-28T10:59:17.808Z,11.92
2022-11-28T11:01:50.353Z,11.89
2022-11-28T11:04:20.837Z,12.16
2022-11-28T11:07:09.187Z,12.21
2022-11-28T11:09:40.763Z,12.08
2022-11-28T11:12:16.813Z,12.28
2022-11-28T11:14:45.154Z,12.30
2022-11-28T11:17:31.258Z,12.38
2022-11-28T11:20:02.896Z,12.83
2022-11-28T11:22:32.448Z,12.91
2022-11-28T11:25:08.620Z,12.66
2022-11-28T11:27:37.870Z,12.71
2022-11-28T11:30:18.774Z,12.59
2022-11-28T11:32:51.650Z,12.65
2022-11-28T11:35:23.349Z,12.42
2022-11-28T11:37:51.187Z,12.44
2022-11-28T11:40:25.725Z,12.53
2022-11-28T11:42:56.027Z,12.66
2022-11-28T11:45:30.721Z,12.78
2022-11-28T11:48:00.272Z,12.75
2022-11-28T11:50:30.567Z,12.83
2022-11-28T11:53:03.020Z,13.00
2022-11-28T11:55:32.755Z,13.30
2022-11-28T11:58:06.667Z,12.88
2022-11-28T12:00:38.936Z,13.00
2022-11-28T12:03:21.186Z,13.24
2022-11-28T12:08:46.175Z,13.65
2022-11-28T12:11:19.448Z,13.45
2022-11-28T12:13:47.549Z,13.31
2022-11-28T12:16:33.750Z,13.16
2022-11-28T12:19:14.528Z,13.24
2022-11-28T12:21:55.568Z,13.23
2022-11-28T12:24:34.624Z,13.37
2022-11-28T12:27:07.588Z,13.34
2022-11-28T12:29:46.423Z,13.75
2022-11-28T12:32:37.976Z,13.49
2022-11-28T12:35:22.041Z,13.16
2022-11-28T12:38:12.548Z,13.22
2022-11-28T12:40:54.446Z,13.56
2022-11-28T12:43:37.871Z,13.40
2022-11-28T12:46:14.743Z,13.55
2022-11-28T12:48:59.929Z,13.91
2022-11-28T12:51:39.139Z,14.21
2022-11-28T12:54:25.300Z,13.33
2022-11-28T12:57:01.754Z,13.31
2022-11-28T12:59:36.103Z,14.21
2022-11-28T13:02:22.573Z,13.45
2022-11-28T13:05:07.684Z,14.03
2022-11-28T13:07:44.616Z,13.35
2022-11-28T13:10:21.620Z,13.32
2022-11-28T13:12:58.125Z,13.51
2022-11-28T13:15:49.993Z,13.25
2022-11-28T13:18:32.920Z,13.30
2022-11-28T13:21:07.711Z,14.05
2022-11-28T13:23:45.077Z,14.56
2022-11-28T13:26:22.526Z,15.04
2022-11-28T13:28:57.205Z,14.92
2022-11-28T13:31:33.882Z,14.56
2022-11-28T13:34:02.122Z,14.68
2022-11-28T13:39:34.357Z,14.60
2022-11-28T13:45:03.299Z,14.52
2022-11-28T13:47:35.054Z,14.53
2022-11-28T13:50:39.540Z,14.25
2022-11-28T13:53:26.355Z,15.05
2022-11-28T13:56:24.349Z,15.16
2022-11-28T13:58:56.789Z,15.12
2022-11-28T14:01:26.016Z,14.74
2022-11-28T14:04:08.769Z,14.79
2022-11-28T14:06:44.567Z,14.16
2022-11-28T14:09:30.202Z,14.04
2022-11-28T14:12:19.204Z,13.40
2022-11-28T14:15:06.578Z,13.43
2022-11-28T14:17:55.185Z,12.92
2022-11-28T14:20:33.403Z,12.70
2022-11-28T14:23:16.988Z,12.24
2022-11-28T14:25:47.370Z,12.10
2022-11-28T14:28:24.502Z,12.13
2022-11-28T14:31:01.003Z,12.30
2022-11-28T14:33:36.745Z,12.16
2022-11-28T14:36:24.973Z,12.46
2022-11-28T14:39:20.519Z,12.54
2022-11-28T14:42:51.871Z,12.69
2022-11-28T14:45:44.472Z,12.70
2022-11-28T14:48:20.478Z,12.45
2022-11-28T14:50:56.200Z,12.65
2022-11-28T14:53:48.150Z,12.59
2022-11-28T14:56:29.771Z,12.68
2022-11-28T14:59:01.456Z,12.54
2022-11-28T15:01:47.131Z,12.46
2022-11-28T15:04:37.452Z,12.27
2022-11-28T15:07:11.745Z,12.23
2022-11-28T15:09:51.544Z,12.53
2022-11-28T15:12:27.752Z,12.44
2022-11-28T15:14:58.179Z,12.54
2022-11-28T15:17:33.353Z,12.63
2022-11-28T15:20:05.898Z,12.79
2022-11-28T15:22:40.328Z,12.66
2022-11-28T15:25:19.556Z,12.47
2022-11-28T15:27:47.529Z,12.49
2022-11-28T15:30:17.008Z,12.62
2022-11-28T15:32:46.913Z,12.73
2022-11-28T15:35:17.377Z,12.71
2022-11-28T15:37:49.454Z,12.62
2022-11-28T15:40:30.044Z,12.83
2022-11-28T15:42:59.828Z,12.75
2022-11-28T15:45:30.029Z,12.45
2022-11-28T15:48:00.036Z,12.67
2022-11-28T15:50:30.606Z,12.80
2022-11-28T15:53:00.833Z,12.82
2022-11-28T15:55:30.720Z,12.79
2022-11-28T15:58:12.408Z,12.92
2022-11-28T16:00:42.818Z,12.97
2022-11-28T16:03:17.066Z,12.97
2022-11-28T16:05:46.047Z,12.89
2022-11-28T16:08:23.397Z,12.68
2022-11-28T16:10:51.220Z,12.18
2022-11-28T16:13:24.308Z,12.19
2022-11-28T16:15:55.682Z,12.20
2022-11-28T16:18:27.515Z,12.24
2022-11-28T16:20:56.393Z,12.18
2022-11-28T16:23:30.043Z,12.11
2022-11-28T16:26:02.556Z,12.09
2022-11-28T16:28:33.237Z,12.24
2022-11-28T16:31:01.203Z,12.28
2022-11-28T16:33:38.844Z,12.14
2022-11-28T16:36:20.204Z,12.22
2022-11-28T16:38:49.254Z,12.15
2022-11-28T16:41:18.795Z,11.98
2022-11-28T16:43:50.330Z,12.22
2022-11-28T16:46:23.843Z,12.29
2022-11-28T16:48:55.280Z,12.42
2022-11-28T16:51:37.991Z,12.41
2022-11-28T16:54:29.809Z,12.22
2022-11-28T16:57:08.744Z,12.03
2022-11-28T16:59:36.512Z,11.80
2022-11-28T17:02:04.720Z,11.59
2022-11-28T17:04:33.911Z,11.37
2022-11-28T17:07:05.276Z,11.53
2022-11-28T17:09:34.135Z,11.35
2022-11-28T17:12:05.450Z,11.51
2022-11-28T17:14:33.586Z,11.52
2022-11-28T17:17:01.400Z,11.23
2022-11-28T17:19:29.091Z,11.27
2022-11-28T17:22:00.917Z,11.03
2022-11-28T17:24:34.172Z,11.54
2022-11-28T17:27:02.396Z,11.53
2022-11-28T17:29:30.357Z,11.60
2022-11-28T17:31:58.884Z,11.74
2022-11-28T17:34:30.696Z,11.59
2022-11-28T17:37:00.517Z,11.58
2022-11-28T17:39:29.029Z,11.51
2022-11-28T17:41:59.101Z,11.65
2022-11-28T17:44:29.289Z,11.78
2022-11-28T17:46:58.840Z,11.76
2022-11-28T17:49:26.620Z,11.65
2022-11-28T17:51:55.897Z,11.76
2022-11-28T17:54:26.709Z,11.53
2022-11-28T17:56:55.223Z,11.06
2022-11-28T17:59:24.768Z,11.16
2022-11-28T18:01:52.655Z,10.96
2022-11-28T18:04:20.450Z,10.77
2022-11-28T18:06:48.731Z,10.82
2022-11-28T18:09:16.849Z,10.96
2022-11-28T18:11:46.385Z,10.78
2022-11-28T18:14:18.112Z,10.85
2022-11-28T18:16:47.287Z,10.90
2022-11-28T18:19:15.578Z,11.19
2022-11-28T18:21:43.343Z,11.06
2022-11-28T18:24:11.282Z,11.26
2022-11-28T18:26:38.965Z,11.28
2022-11-28T18:29:08.455Z,11.32
2022-11-28T18:31:36.460Z,11.17
2022-11-28T18:34:05.988Z,10.99
2022-11-28T18:36:35.599Z,10.78
2022-11-28T18:39:06.328Z,10.67
2022-11-28T18:41:34.033Z,10.47
2022-11-28T18:44:03.711Z,10.47
2022-11-28T18:46:34.121Z,10.67
2022-11-28T18:49:03.966Z,10.63
2022-11-28T18:51:33.904Z,10.60
2022-11-28T18:54:04.721Z,10.50
2022-11-28T18:56:32.817Z,10.50
2022-11-28T18:59:00.700Z,10.54
2022-11-28T19:01:30.703Z,10.35
2022-11-28T19:04:02.537Z,10.63
2022-11-28T19:06:30.736Z,10.80
2022-11-28T19:09:00.815Z,10.66
2022-11-28T19:11:29.622Z,11.10
2022-11-28T19:13:57.831Z,11.18
2022-11-28T19:16:27.989Z,11.17
2022-11-28T19:18:56.365Z,11.19
2022-11-28T19:21:27.637Z,11.23
2022-11-28T19:23:56.385Z,10.93
2022-11-28T19:26:26.270Z,10.97
2022-11-28T19:28:54.761Z,11.03
2022-11-28T19:31:24.301Z,10.89
2022-11-28T19:34:00.980Z,11.06
2022-11-28T19:36:31.929Z,10.67
2022-11-28T19:39:00.165Z,10.73
2022-11-28T19:41:29.833Z,10.74
2022-11-28T19:43:57.684Z,10.91
2022-11-28T19:46:29.226Z,11.12
2022-11-28T19:48:59.902Z,11.13
2022-11-28T19:51:27.727Z,11.24
2022-11-28T19:54:02.686Z,11.23
2022-11-28T19:56:31.370Z,11.28
2022-11-28T19:58:59.962Z,11.18
2022-11-28T20:01:28.042Z,11.11
2022-11-28T20:03:56.052Z,10.87
2022-11-28T20:06:25.784Z,10.84
2022-11-28T20:08:55.221Z,10.53
2022-11-28T20:11:26.196Z,10.55
2022-11-28T20:13:57.217Z,10.58
2022-11-28T20:16:25.306Z,10.67
2022-11-28T20:18:53.019Z,10.59
2022-11-28T20:21:21.701Z,10.51
2022-11-28T20:23:51.091Z,10.64
2022-11-28T20:26:21.292Z,10.55
2022-11-28T20:28:50.947Z,10.49
2022-11-28T20:31:20.636Z,10.60
2022-11-28T20:33:48.704Z,10.63
2022-11-28T20:36:18.600Z,10.68
2022-11-28T20:38:46.929Z,10.84
2022-11-28T20:41:15.775Z,10.86
2022-11-28T20:43:43.712Z,10.76
2022-11-28T20:46:14.356Z,10.71
2022-11-28T20:48:42.720Z,10.70
2022-11-28T20:51:11.243Z,10.53
2022-11-28T20:53:41.195Z,10.47
2022-11-28T20:56:12.278Z,10.37
2022-11-28T20:58:40.251Z,10.33
2022-11-28T21:01:08.118Z,10.25
2022-11-28T21:03:37.852Z,10.26
2022-11-28T21:06:05.647Z,10.19
2022-11-28T21:08:33.818Z,10.27
2022-11-28T21:11:05.907Z,10.22
2022-11-28T21:13:33.651Z,10.20
2022-11-28T21:16:06.253Z,10.19
2022-11-28T21:18:34.483Z,10.19
2022-11-28T21:21:08.003Z,10.19
2022-11-28T21:23:35.950Z,10.22
2022-11-28T21:26:08.469Z,10.21
2022-11-28T21:28:36.912Z,10.10
2022-11-28T21:31:07.784Z,9.97
2022-11-28T21:33:35.616Z,9.92
2022-11-28T21:36:06.848Z,9.91
2022-11-28T21:38:35.160Z,9.95
2022-11-28T21:41:03.254Z,9.81
2022-11-28T21:43:31.393Z,9.69
2022-11-28T21:46:03.101Z,9.57
2022-11-28T21:48:32.079Z,9.47
2022-11-28T21:51:00.300Z,9.42
2022-11-28T21:53:30.093Z,9.41
2022-11-28T21:56:01.736Z,9.44
2022-11-28T21:58:30.744Z,9.41
2022-11-28T22:00:59.300Z,9.33
2022-11-28T22:03:28.011Z,9.16
2022-11-28T22:06:01.090Z,9.05
2022-11-28T22:08:30.683Z,9.13
2022-11-28T22:11:00.908Z,9.08
2022-11-28T22:13:29.231Z,9.18
2022-11-28T22:15:57.261Z,9.20
2022-11-28T22:18:25.307Z,9.27
2022-11-28T22:20:53.324Z,9.40
2022-11-28T22:23:21.192Z,9.51
2022-11-28T22:25:53.653Z,9.48
2022-11-28T22:28:21.511Z,9.27
2022-11-28T22:30:49.267Z,9.12
2022-11-28T22:33:17.154Z,8.98
2022-11-28T22:35:45.552Z,8.95
2022-11-28T22:38:13.718Z,8.81
2022-11-28T22:40:41.582Z,8.93
2022-11-28T22:43:10.779Z,9.07
2022-11-28T22:45:38.621Z,9.12
2022-11-28T22:48:07.221Z,9.22
2022-11-28T22:50:39.979Z,9.17
2022-11-28T22:53:08.014Z,9.15
2022-11-28T22:55:36.204Z,9.21
2022-11-28T22:58:03.902Z,9.16
2022-11-28T23:00:33.043Z,9.13
2022-11-28T23:03:00.937Z,9.09
2022-11-28T23:05:28.752Z,9.18
2022-11-28T23:07:56.733Z,9.31
2022-11-28T23:10:25.477Z,9.37
2022-11-28T23:12:53.188Z,9.48
2022-11-28T23:15:21.292Z,9.35
2022-11-28T23:17:51.017Z,9.29
2022-11-28T23:20:19.150Z,9.24
2022-11-28T23:22:46.875Z,9.07
2022-11-28T23:25:15.345Z,9.01
2022-11-28T23:27:43.113Z,8.91
2022-11-28T23:30:11.680Z,8.95
2022-11-28T23:32:39.399Z,8.98
2022-11-28T23:35:09.254Z,9.01
2022-11-28T23:37:39.336Z,8.89
2022-11-28T23:40:08.616Z,8.94
2022-11-28T23:42:36.284Z,9.00
2022-11-28T23:45:04.361Z,8.96
2022-11-28T23:47:32.581Z,8.94
2022-11-28T23:50:00.341Z,9.07
2022-11-28T23:52:29.516Z,9.06
2022-11-28T23:54:57.227Z,9.07
2022-11-28T23:57:24.996Z,9.13
2022-11-28T23:59:52.836Z,9.06
